Time;durP1;ratioP1;P1;durP2;ratioP2;P2;SDS_P1;SDS_P2;PMS_P1;PMS_P2;Temp;Humidity;BMP_temperature;BMP_pressure;BME280_temperature;BME280_humidity;BME280_pressure;Samples;Min_cycle;Max_cycle;Signal;HPM_P1;HPM_P2
2022/06/12 00:04:25;;;;;;;4.80;4.30;;;19.90;92.50;;;;;;10413079;28;20233;-77
2022/06/12 00:09:27;;;;;;;5.03;4.53;;;19.90;92.60;;;;;;10412554;28;20751;-80
2022/06/12 00:14:30;;;;;;;5.10;4.60;;;19.80;92.50;;;;;;10403600;28;20229;-77
2022/06/12 00:19:33;;;;;;;5.40;5.00;;;19.80;92.60;;;;;;10409180;28;20229;-79
2022/06/12 00:24:35;;;;;;;4.70;4.30;;;19.70;92.70;;;;;;10412264;28;20658;-77
2022/06/12 00:29:39;;;;;;;6.63;5.10;;;19.70;93.00;;;;;;10407881;28;20260;-77
2022/06/12 00:34:45;;;;;;;5.17;4.63;;;19.60;93.20;;;;;;10409430;28;20221;-77
2022/06/12 00:39:50;;;;;;;5.20;4.70;;;19.60;93.00;;;;;;10402537;28;20221;-75
2022/06/12 00:44:56;;;;;;;5.07;4.57;;;19.60;93.00;;;;;;10409813;28;20332;-77
2022/06/12 00:50:01;;;;;;;4.87;4.37;;;19.60;93.40;;;;;;10406513;28;20225;-76
2022/06/12 00:55:10;;;;;;;5.07;4.57;;;19.60;93.70;;;;;;10408256;28;20253;-76
2022/06/12 01:00:16;;;;;;;4.83;4.47;;;19.60;93.50;;;;;;10407610;28;20233;-78
2022/06/12 01:10:42;;;;;;;4.63;4.23;;;19.50;93.40;;;;;;10408565;28;20259;-77
2022/06/12 01:15:48;;;;;;;4.30;4.00;;;19.40;93.60;;;;;;10409189;28;20248;-78
2022/06/12 01:20:58;;;;;;;4.57;4.27;;;19.40;93.60;;;;;;10411980;28;20202;-76
2022/06/12 01:26:22;;;;;;;6.00;4.40;;;19.40;93.60;;;;;;10405330;28;20279;-79
2022/06/12 01:31:45;;;;;;;4.30;4.00;;;19.30;93.80;;;;;;10407193;28;20237;-77
2022/06/12 01:36:53;;;;;;;4.50;4.20;;;19.30;94.00;;;;;;10395669;28;20664;-77
2022/06/12 01:42:06;;;;;;;4.70;4.30;;;19.30;93.60;;;;;;10396918;28;20632;-77
2022/06/12 01:47:20;;;;;;;4.50;4.20;;;19.20;93.80;;;;;;10409900;28;20222;-76
2022/06/12 01:52:30;;;;;;;4.40;4.10;;;19.20;94.20;;;;;;10398754;28;20277;-76
2022/06/12 01:57:38;;;;;;;4.47;4.17;;;19.10;94.20;;;;;;10412135;28;20554;-76
2022/06/12 02:02:48;;;;;;;4.30;4.00;;;19.10;95.20;;;;;;10411824;28;20194;-76
2022/06/12 02:07:55;;;;;;;4.57;4.27;;;19.10;94.50;;;;;;10412005;28;20225;-77
2022/06/12 02:13:12;;;;;;;4.73;4.43;;;19.10;94.30;;;;;;10405630;28;20226;-76
2022/06/12 02:18:22;;;;;;;5.17;4.67;;;19.00;94.30;;;;;;10408320;28;20315;-76
2022/06/12 02:23:30;;;;;;;5.40;4.90;;;19.00;94.30;;;;;;10411115;28;20205;-76
2022/06/12 02:28:39;;;;;;;5.10;4.80;;;18.90;94.10;;;;;;10405856;28;20701;-75
2022/06/12 02:33:48;;;;;;;4.97;4.67;;;18.90;94.10;;;;;;10413599;28;20245;-78
2022/06/12 02:38:57;;;;;;;4.67;4.33;;;18.80;94.30;;;;;;10404415;28;20245;-76
2022/06/12 02:44:06;;;;;;;4.63;4.23;;;18.80;94.90;;;;;;10402796;28;20202;-77
2022/06/12 02:49:09;;;;;;;5.30;4.80;;;18.80;94.50;;;;;;10408688;28;20228;-76
2022/06/12 02:54:24;;;;;;;4.97;4.67;;;18.70;95.00;;;;;;10411906;28;20221;-77
2022/06/12 02:59:35;;;;;;;6.27;5.03;;;18.70;95.20;;;;;;10411555;28;20222;-75
2022/06/12 03:04:46;;;;;;;4.70;4.40;;;18.70;95.00;;;;;;10405033;28;20284;-75
2022/06/12 03:09:48;;;;;;;5.10;4.70;;;18.70;95.50;;;;;;10405250;28;20224;-76
2022/06/12 03:14:52;;;;;;;4.50;4.27;;;18.70;95.30;;;;;;10411825;28;20225;-78
2022/06/12 03:19:57;;;;;;;4.53;4.30;;;18.60;95.90;;;;;;10401152;28;20237;-77
2022/06/12 03:25:09;;;;;;;5.00;4.60;;;18.60;94.80;;;;;;10418487;28;20193;-81
2022/06/12 03:30:18;;;;;;;5.30;4.87;;;18.60;95.00;;;;;;10412316;28;20283;-79
2022/06/12 03:35:32;;;;;;;5.17;4.77;;;18.50;95.20;;;;;;10410786;28;20844;-78
2022/06/12 03:40:44;;;;;;;5.50;4.93;;;18.50;95.60;;;;;;10407905;28;20209;-77
2022/06/12 03:45:52;;;;;;;4.47;4.07;;;18.50;95.40;;;;;;10409899;28;20225;-78
2022/06/12 03:51:06;;;;;;;4.83;4.53;;;18.50;95.30;;;;;;10405766;28;20810;-77
2022/06/12 04:01:33;;;;;;;5.10;4.70;;;18.40;95.60;;;;;;10411484;28;20201;-77
2022/06/12 04:06:37;;;;;;;6.23;5.80;;;18.40;96.00;;;;;;10408812;28;20754;-78
2022/06/12 04:11:42;;;;;;;5.00;4.70;;;18.40;96.20;;;;;;10414500;28;20201;-77
2022/06/12 04:16:48;;;;;;;5.77;5.30;;;18.40;96.30;;;;;;10408946;28;20233;-77
2022/06/12 04:22:02;;;;;;;6.57;5.97;;;18.40;96.00;;;;;;10410931;28;20228;-78
2022/06/12 04:27:08;;;;;;;6.30;5.70;;;18.40;96.70;;;;;;10412810;28;20218;-77
2022/06/12 04:32:10;;;;;;;6.60;5.93;;;18.40;97.10;;;;;;10411524;28;20666;-76
2022/06/12 04:37:18;;;;;;;9.23;8.13;;;18.50;97.30;;;;;;10389887;28;20221;-80
2022/06/12 04:42:22;;;;;;;8.30;7.40;;;18.50;97.30;;;;;;10409736;28;20197;-76
2022/06/12 04:47:26;;;;;;;9.27;6.80;;;18.50;97.50;;;;;;10411008;28;20678;-81
2022/06/12 04:52:30;;;;;;;6.57;5.83;;;18.60;97.50;;;;;;10407748;28;20237;-80
2022/06/12 04:57:32;;;;;;;7.77;6.13;;;18.60;97.80;;;;;;10414465;28;20222;-76
2022/06/12 05:02:35;;;;;;;6.40;5.80;;;18.60;97.60;;;;;;10412737;28;20209;-78
2022/06/12 05:07:39;;;;;;;6.03;5.63;;;18.70;97.80;;;;;;10405831;28;20214;-77
2022/06/12 05:12:41;;;;;;;6.13;5.70;;;18.70;97.70;;;;;;10417660;28;20209;-78
2022/06/12 05:17:47;;;;;;;6.23;5.77;;;18.80;97.80;;;;;;10417326;28;20710;-76
2022/06/12 05:22:51;;;;;;;6.67;6.17;;;18.80;98.10;;;;;;10420322;28;20261;-77
2022/06/12 05:27:54;;;;;;;6.77;6.17;;;18.90;98.10;;;;;;10420151;28;20260;-75
2022/06/12 05:32:59;;;;;;;6.37;5.87;;;18.90;98.20;;;;;;10409702;28;20458;-78
2022/06/12 05:38:03;;;;;;;6.30;5.80;;;19.00;98.10;;;;;;10407400;28;20405;-77
2022/06/12 05:43:05;;;;;;;7.13;6.30;;;19.00;98.10;;;;;;10403030;28;20285;-76
2022/06/12 05:48:12;;;;;;;6.83;6.27;;;19.10;98.10;;;;;;10399925;28;20222;-78
2022/06/12 05:53:16;;;;;;;6.30;5.80;;;19.20;97.90;;;;;;10414570;28;20260;-76
2022/06/12 05:58:19;;;;;;;6.67;6.17;;;19.30;97.70;;;;;;10410260;28;20288;-76
2022/06/12 06:03:22;;;;;;;7.50;5.70;;;19.40;97.40;;;;;;10411249;28;20544;-76
2022/06/12 06:08:25;;;;;;;7.37;6.37;;;19.40;97.10;;;;;;10411553;28;20222;-77
2022/06/12 06:13:27;;;;;;;6.00;5.50;;;19.50;96.90;;;;;;10412146;28;20240;-75
2022/06/12 06:18:30;;;;;;;6.33;5.83;;;19.60;97.10;;;;;;10431373;22;20261;-84
2022/06/12 06:23:33;;;;;;;7.43;6.30;;;19.60;97.40;;;;;;10428422;28;20228;-83
2022/06/12 06:28:36;;;;;;;7.20;6.47;;;19.80;97.20;;;;;;10423386;28;20225;-83
2022/06/12 06:33:39;;;;;;;6.43;5.80;;;19.90;97.70;;;;;;10418332;28;20276;-83
2022/06/12 06:38:43;;;;;;;6.40;5.87;;;20.00;97.60;;;;;;10430052;28;20225;-81
2022/06/12 06:49:05;;;;;;;7.00;6.40;;;20.40;96.80;;;;;;10413263;28;20222;-82
2022/06/12 06:54:08;;;;;;;5.87;5.47;;;20.70;96.40;;;;;;10431029;28;20297;-81
2022/06/12 06:59:11;;;;;;;5.90;5.50;;;21.00;96.10;;;;;;10409700;28;20217;-81
2022/06/12 07:04:14;;;;;;;5.90;5.40;;;21.20;95.30;;;;;;10403470;28;20254;-81
2022/06/12 07:09:17;;;;;;;6.63;5.87;;;21.50;95.10;;;;;;10401083;28;20218;-81
2022/06/12 07:14:19;;;;;;;5.40;4.93;;;21.80;94.40;;;;;;10417167;28;20572;-81
2022/06/12 07:19:22;;;;;;;5.47;5.10;;;22.10;94.00;;;;;;10407104;28;20303;-81
2022/06/12 07:24:25;;;;;;;5.00;4.70;;;22.40;94.10;;;;;;10402761;28;20198;-82
2022/06/12 07:29:27;;;;;;;6.43;5.90;;;22.70;93.80;;;;;;10417836;28;20220;-81
2022/06/12 07:34:30;;;;;;;5.80;5.30;;;23.00;93.40;;;;;;10393029;28;20404;-81
2022/06/12 07:39:34;;;;;;;5.90;5.30;;;23.30;92.00;;;;;;10390719;28;20237;-82
2022/06/12 07:44:36;;;;;;;5.20;4.83;;;23.70;91.30;;;;;;10396493;28;20205;-81
2022/06/12 07:49:38;;;;;;;4.70;4.30;;;24.20;91.50;;;;;;10411935;28;20324;-81
2022/06/12 07:54:42;;;;;;;5.77;5.27;;;24.70;90.40;;;;;;10415283;28;20304;-80
2022/06/12 07:59:44;;;;;;;4.60;4.20;;;25.30;89.80;;;;;;10402444;28;20219;-82
2022/06/12 08:04:47;;;;;;;4.43;4.07;;;26.00;88.40;;;;;;10405682;28;20214;-80
2022/06/12 08:09:50;;;;;;;5.10;4.10;;;26.70;86.30;;;;;;10388536;28;20267;-81
2022/06/12 08:14:54;;;;;;;6.80;4.80;;;27.30;84.20;;;;;;10412738;28;20744;-80
2022/06/12 08:25:17;;;;;;;4.67;4.37;;;28.40;78.60;;;;;;10408069;28;20276;-82
2022/06/12 08:30:19;;;;;;;6.03;5.10;;;28.80;78.30;;;;;;10387558;28;20625;-82
2022/06/12 08:35:25;;;;;;;5.73;4.27;;;29.30;77.00;;;;;;10397992;28;20313;-79
2022/06/12 08:40:36;;;;;;;4.40;4.10;;;29.60;74.40;;;;;;10394026;28;20229;-81
2022/06/12 08:45:45;;;;;;;5.80;4.03;;;30.00;73.70;;;;;;10412584;28;20193;-82
2022/06/12 08:50:53;;;;;;;4.07;3.83;;;30.30;72.50;;;;;;10408728;28;20248;-82
2022/06/12 08:56:00;;;;;;;4.23;4.03;;;30.60;71.30;;;;;;10417780;28;20260;-82
2022/06/12 09:01:02;;;;;;;3.60;3.30;;;30.90;69.40;;;;;;10411873;28;20206;-82
2022/06/12 09:06:14;;;;;;;3.63;3.40;;;31.20;68.40;;;;;;10405939;28;20222;-82
2022/06/12 09:11:22;;;;;;;4.30;3.77;;;31.40;66.80;;;;;;10415263;28;20217;-82
2022/06/12 09:16:30;;;;;;;5.30;3.80;;;31.70;66.30;;;;;;10415657;28;20309;-82
2022/06/12 09:21:47;;;;;;;3.50;3.20;;;32.00;60.40;;;;;;10404462;28;20217;-79
2022/06/12 09:27:02;;;;;;;3.60;3.40;;;32.20;60.80;;;;;;10411501;28;20304;-79
2022/06/12 09:32:14;;;;;;;4.63;4.20;;;32.60;61.40;;;;;;10399464;28;20197;-81
2022/06/12 09:43:23;;;;;;;4.90;4.40;;;33.80;58.80;;;;;;10317590;28;20293;-81
2022/06/12 09:48:39;;;;;;;3.60;3.40;;;34.80;55.30;;;;;;10387513;28;20230;-82
2022/06/12 09:54:05;;;;;;;4.80;4.40;;;35.70;54.30;;;;;;10410351;28;20208;-81
2022/06/12 09:59:14;;;;;;;3.50;3.20;;;37.00;53.90;;;;;;10422494;28;20224;-82
2022/06/12 10:04:21;;;;;;;4.35;4.03;;;37.60;50.50;;;;;;10418311;28;20197;-82
2022/06/12 10:09:35;;;;;;;4.40;4.10;;;37.30;51.60;;;;;;10417095;28;20225;-82
2022/06/12 10:14:44;;;;;;;3.83;3.63;;;36.90;51.40;;;;;;10421194;28;20227;-82
2022/06/12 10:19:50;;;;;;;4.23;3.90;;;36.90;51.40;;;;;;10422620;28;20228;-82
2022/06/12 10:24:52;;;;;;;3.97;3.67;;;36.20;50.70;;;;;;10423362;28;20190;-82
2022/06/12 10:30:00;;;;;;;4.07;3.80;;;35.10;51.60;;;;;;10418231;28;20224;-81
2022/06/12 10:35:13;;;;;;;3.40;3.20;;;33.90;52.90;;;;;;10416480;28;20221;-81
2022/06/12 10:40:18;;;;;;;6.07;4.00;;;33.00;54.70;;;;;;10421161;28;20225;-82
2022/06/12 10:45:25;;;;;;;3.83;3.60;;;32.20;55.50;;;;;;10420560;28;20206;-81
2022/06/12 10:50:31;;;;;;;3.63;3.43;;;31.50;57.70;;;;;;10423481;28;20229;-81
2022/06/12 10:55:43;;;;;;;4.40;4.20;;;30.90;57.00;;;;;;10428351;28;20246;-81
2022/06/12 11:00:48;;;;;;;4.10;3.90;;;30.30;58.00;;;;;;10418928;28;20198;-82
2022/06/12 11:06:12;;;;;;;3.70;3.50;;;29.80;60.50;;;;;;10416059;28;20585;-82
2022/06/12 11:11:25;;;;;;;4.07;3.80;;;29.40;60.80;;;;;;10409019;28;20201;-81
2022/06/12 11:16:40;;;;;;;3.53;3.33;;;29.00;62.60;;;;;;10399306;28;20229;-81
2022/06/12 11:21:53;;;;;;;4.30;3.90;;;28.70;64.40;;;;;;10408375;28;20204;-81
2022/06/12 11:27:24;;;;;;;4.50;4.00;;;28.40;62.40;;;;;;10420339;28;20222;-81
2022/06/12 11:32:39;;;;;;;11.23;7.97;;;28.10;65.40;;;;;;10422257;28;20224;-82
2022/06/12 11:37:56;;;;;;;4.70;4.40;;;28.00;64.90;;;;;;10413284;28;20239;-79
2022/06/12 11:43:08;;;;;;;4.07;3.70;;;28.00;63.80;;;;;;10381852;28;20197;-81
2022/06/12 11:48:26;;;;;;;4.33;4.07;;;28.00;63.80;;;;;;10400055;28;20611;-81
2022/06/12 11:53:44;;;;;;;5.33;4.83;;;28.10;64.30;;;;;;10400555;28;20222;-80
2022/06/12 11:59:00;;;;;;;4.30;3.90;;;27.90;62.10;;;;;;10400332;28;20233;-80
2022/06/12 12:04:36;;;;;;;4.60;4.30;;;27.80;64.10;;;;;;10408834;28;20201;-80
2022/06/12 12:09:54;;;;;;;4.40;4.10;;;27.80;62.60;;;;;;10390176;28;20214;-81
2022/06/12 12:14:59;;;;;;;4.67;4.13;;;27.70;63.50;;;;;;10404134;28;20261;-83
2022/06/12 12:20:12;;;;;;;3.87;3.67;;;27.60;63.70;;;;;;10414373;28;20292;-82
2022/06/12 12:25:20;;;;;;;4.50;4.10;;;27.70;62.10;;;;;;10422075;28;20201;-82
2022/06/12 12:30:26;;;;;;;3.90;3.63;;;27.60;63.60;;;;;;10399210;28;20225;-81
2022/06/12 12:41:14;;;;;;;3.97;3.67;;;27.50;65.80;;;;;;10423457;28;20205;-82
2022/06/12 12:46:17;;;;;;;3.87;3.57;;;27.40;65.00;;;;;;10417749;28;20217;-82
2022/06/12 12:51:29;;;;;;;4.23;3.90;;;27.40;64.30;;;;;;10400992;28;20212;-82
2022/06/12 12:56:34;;;;;;;3.57;3.27;;;27.40;66.00;;;;;;10412252;28;20233;-82
2022/06/12 13:01:39;;;;;;;3.90;3.70;;;27.50;67.10;;;;;;10418668;28;20201;-82
2022/06/12 13:07:05;;;;;;;4.13;3.83;;;27.50;66.00;;;;;;10420546;28;20221;-81
2022/06/12 13:12:27;;;;;;;3.20;3.00;;;27.50;65.80;;;;;;10400471;28;20207;-81
2022/06/12 13:17:40;;;;;;;4.57;4.27;;;27.60;65.90;;;;;;10374558;28;20305;-82
2022/06/12 13:22:57;;;;;;;4.40;4.07;;;27.60;65.30;;;;;;10385164;28;20475;-81
2022/06/12 13:28:01;;;;;;;3.90;3.70;;;27.50;65.50;;;;;;10372842;28;20228;-80
2022/06/12 13:33:10;;;;;;;3.50;3.30;;;27.50;65.10;;;;;;10409181;28;20662;-81
2022/06/12 13:38:21;;;;;;;3.40;3.20;;;27.40;66.80;;;;;;10402292;28;20229;-81
2022/06/12 13:43:30;;;;;;;3.30;3.10;;;27.30;68.80;;;;;;10411356;28;20210;-81
2022/06/12 13:48:35;;;;;;;4.07;3.80;;;27.30;67.20;;;;;;10395754;28;20890;-81
2022/06/12 13:53:45;;;;;;;3.43;3.23;;;27.20;67.90;;;;;;10392871;28;20565;-80
2022/06/12 13:58:53;;;;;;;3.97;3.60;;;27.20;68.00;;;;;;10380915;28;20229;-80
2022/06/12 14:03:58;;;;;;;4.13;3.27;;;27.20;67.10;;;;;;10379058;28;20202;-81
2022/06/12 14:09:06;;;;;;;3.90;3.67;;;27.30;70.00;;;;;;10385247;28;20227;-81
2022/06/12 14:14:36;;;;;;;3.40;3.10;;;27.40;69.70;;;;;;10372626;28;20212;-80
2022/06/12 14:19:38;;;;;;;4.83;4.30;;;27.60;67.90;;;;;;10371528;28;20446;-82
2022/06/12 14:24:43;;;;;;;3.80;3.50;;;27.60;69.40;;;;;;10411361;28;20297;-82
2022/06/12 14:29:46;;;;;;;4.63;3.40;;;27.60;68.10;;;;;;10420950;28;20224;-82
2022/06/12 14:35:02;;;;;;;3.20;3.10;;;27.50;68.50;;;;;;10413429;28;20201;-81
2022/06/12 14:40:24;;;;;;;4.20;3.90;;;27.50;68.30;;;;;;10422088;28;20245;-81
2022/06/12 14:45:29;;;;;;;3.47;3.17;;;27.50;67.20;;;;;;10404550;28;20248;-81
2022/06/12 14:50:31;;;;;;;3.47;3.20;;;27.40;69.20;;;;;;10417214;28;20641;-82
2022/06/12 14:55:35;;;;;;;4.13;3.73;;;27.40;68.10;;;;;;10411365;28;20280;-82
2022/06/12 15:00:38;;;;;;;4.80;3.87;;;27.40;68.10;;;;;;10427599;28;20218;-82
2022/06/12 15:05:40;;;;;;;4.70;3.80;;;27.30;68.70;;;;;;10422047;28;20190;-82
2022/06/12 15:10:44;;;;;;;4.00;3.70;;;27.20;68.80;;;;;;10420296;28;20216;-81
2022/06/12 15:15:47;;;;;;;4.60;4.30;;;27.10;71.20;;;;;;10414314;28;20214;-81
2022/06/12 15:20:52;;;;;;;4.60;4.30;;;27.00;69.90;;;;;;10416214;28;20251;-81
2022/06/12 15:31:17;;;;;;;4.00;3.80;;;26.90;69.70;;;;;;10407004;28;20210;-81
2022/06/12 15:36:19;;;;;;;4.63;4.30;;;26.80;71.30;;;;;;10407199;28;20225;-82
2022/06/12 15:41:23;;;;;;;11.80;10.80;;;26.70;73.00;;;;;;10415880;28;20202;-81
2022/06/12 15:46:25;;;;;;;5.17;4.80;;;26.50;71.70;;;;;;10417693;28;20237;-81
2022/06/12 15:51:28;;;;;;;8.73;8.03;;;26.40;72.10;;;;;;10417420;28;20677;-80
2022/06/12 15:56:32;;;;;;;4.10;3.80;;;26.40;72.60;;;;;;10410281;28;20603;-81
2022/06/12 16:01:34;;;;;;;5.53;5.10;;;26.30;72.50;;;;;;10413445;28;20249;-81
2022/06/12 16:06:36;;;;;;;4.90;4.60;;;26.30;71.50;;;;;;10403706;28;20219;-81
2022/06/12 16:11:40;;;;;;;3.73;3.50;;;26.30;71.30;;;;;;10409708;28;20256;-80
2022/06/12 16:16:42;;;;;;;4.37;4.07;;;26.30;68.10;;;;;;10414178;28;20733;-80
2022/06/12 16:21:45;;;;;;;3.30;3.00;;;26.40;67.50;;;;;;10410882;28;20225;-81
2022/06/12 16:26:48;;;;;;;3.30;3.10;;;26.40;69.10;;;;;;10412226;28;20219;-80
2022/06/12 16:31:50;;;;;;;4.30;3.90;;;26.40;65.20;;;;;;10412134;28;20206;-80
2022/06/12 16:36:52;;;;;;;3.67;3.47;;;26.40;67.00;;;;;;10392611;28;20236;-81
2022/06/12 16:41:57;;;;;;;4.70;4.20;;;26.20;67.40;;;;;;10375156;28;20202;-81
2022/06/12 16:46:59;;;;;;;4.43;4.10;;;26.20;66.90;;;;;;10388977;28;20234;-81
2022/06/12 16:52:06;;;;;;;6.60;4.83;;;26.20;67.50;;;;;;10405812;28;20195;-80
2022/06/12 16:57:12;;;;;;;3.07;2.87;;;26.10;68.90;;;;;;10388469;28;20712;-81
2022/06/12 17:02:16;;;;;;;3.00;2.80;;;26.10;64.90;;;;;;10412578;28;20248;-81
2022/06/12 17:07:22;;;;;;;2.70;2.50;;;26.10;65.50;;;;;;10420439;28;20209;-81
2022/06/12 17:12:27;;;;;;;3.70;3.17;;;26.10;65.70;;;;;;10424975;28;20209;-81
2022/06/12 17:17:29;;;;;;;3.30;3.00;;;26.10;66.00;;;;;;10418620;28;20249;-80
2022/06/12 17:22:32;;;;;;;4.03;3.73;;;26.10;67.40;;;;;;10422319;28;20221;-82
2022/06/12 17:27:36;;;;;;;3.50;3.20;;;26.00;68.10;;;;;;10423520;28;20215;-80
2022/06/12 17:32:39;;;;;;;3.63;3.33;;;25.90;68.20;;;;;;10406797;28;20637;-82
2022/06/12 17:37:41;;;;;;;3.20;2.93;;;25.90;67.50;;;;;;10422597;28;20226;-81
2022/06/12 17:42:45;;;;;;;3.07;2.90;;;25.80;68.20;;;;;;10421329;28;20210;-82
2022/06/12 17:47:48;;;;;;;3.30;2.63;;;25.80;69.30;;;;;;10398554;28;20217;-81
2022/06/12 17:52:50;;;;;;;3.03;2.83;;;25.70;69.60;;;;;;10408365;28;20198;-81
2022/06/12 17:57:54;;;;;;;2.90;2.70;;;25.60;70.80;;;;;;10423767;28;20226;-81
2022/06/12 18:02:56;;;;;;;3.37;3.17;;;25.50;72.80;;;;;;10437487;28;20681;-81
2022/06/12 18:07:58;;;;;;;3.17;3.07;;;25.40;70.90;;;;;;10415704;28;20210;-82
2022/06/12 18:13:01;;;;;;;3.40;3.20;;;25.30;73.90;;;;;;10422408;28;20213;-81
2022/06/12 18:23:24;;;;;;;3.47;3.27;;;25.10;73.00;;;;;;10380187;28;20209;-76
2022/06/12 18:28:28;;;;;;;3.10;2.90;;;25.10;74.30;;;;;;10397203;28;20217;-77
2022/06/12 18:33:30;;;;;;;4.63;3.27;;;25.10;73.20;;;;;;10401583;28;20210;-78
2022/06/12 18:38:32;;;;;;;4.37;4.00;;;25.10;73.70;;;;;;10399793;28;20317;-77
2022/06/12 18:43:36;;;;;;;3.80;3.50;;;25.00;75.20;;;;;;10412046;28;20218;-79
2022/06/12 18:48:38;;;;;;;3.33;3.10;;;24.90;77.50;;;;;;10411622;28;20219;-80
2022/06/12 18:53:40;;;;;;;3.40;3.27;;;24.90;77.60;;;;;;10407012;28;20198;-78
2022/06/12 18:58:44;;;;;;;3.30;3.10;;;24.80;75.50;;;;;;10398628;28;20236;-78
2022/06/12 19:03:47;;;;;;;3.23;3.07;;;24.80;75.60;;;;;;10404590;28;20617;-80
2022/06/12 19:08:49;;;;;;;3.83;3.53;;;24.80;75.90;;;;;;10409852;28;20214;-80
2022/06/12 19:13:52;;;;;;;3.50;3.20;;;24.80;76.50;;;;;;10395974;28;20233;-80
2022/06/12 19:18:54;;;;;;;4.40;3.13;;;24.80;77.70;;;;;;10372872;28;1107077;-80
2022/06/12 19:23:57;;;;;;;5.70;5.20;;;24.70;79.20;;;;;;10398628;28;20472;-78
2022/06/12 19:29:00;;;;;;;4.40;4.10;;;24.60;80.00;;;;;;10398123;28;20313;-79
2022/06/12 19:34:02;;;;;;;3.93;3.73;;;24.50;82.40;;;;;;10411349;28;20201;-79
2022/06/12 19:39:07;;;;;;;3.53;3.33;;;24.40;83.50;;;;;;10392951;28;20764;-78
2022/06/12 19:44:11;;;;;;;3.53;3.23;;;24.40;82.40;;;;;;10405428;28;20217;-78
2022/06/12 19:49:13;;;;;;;3.63;3.27;;;24.30;82.60;;;;;;10395707;28;20225;-78
2022/06/12 19:54:17;;;;;;;4.90;4.50;;;24.30;82.70;;;;;;10400447;28;20198;-78
2022/06/12 19:59:22;;;;;;;3.97;3.63;;;24.30;84.60;;;;;;10402791;28;20268;-78
2022/06/12 20:09:43;;;;;;;3.77;3.53;;;24.30;83.00;;;;;;10409726;28;20312;-79
2022/06/12 20:14:48;;;;;;;4.47;3.90;;;24.30;83.10;;;;;;10402563;28;20216;-77
2022/06/12 20:19:50;;;;;;;3.93;3.63;;;24.30;87.00;;;;;;10378783;28;20226;-77
2022/06/12 20:24:52;;;;;;;3.70;3.30;;;24.30;88.30;;;;;;10400915;28;20685;-77
2022/06/12 20:29:56;;;;;;;4.07;3.80;;;24.20;89.50;;;;;;10403965;28;20263;-77
2022/06/12 20:34:59;;;;;;;3.80;3.50;;;24.20;90.00;;;;;;10382911;28;20206;-77
2022/06/12 20:40:01;;;;;;;4.63;4.30;;;24.20;90.00;;;;;;10390819;28;20231;-76
2022/06/12 20:45:05;;;;;;;3.63;3.30;;;24.10;89.60;;;;;;10394234;28;20206;-77
2022/06/12 20:50:08;;;;;;;3.87;3.67;;;24.10;89.70;;;;;;10401065;28;20217;-77
2022/06/12 20:55:11;;;;;;;6.03;5.53;;;24.10;89.30;;;;;;10402048;28;20202;-78
2022/06/12 21:00:16;;;;;;;14.83;13.33;;;24.00;91.20;;;;;;10411373;28;20253;-78
2022/06/12 21:05:19;;;;;;;6.13;5.60;;;23.90;92.80;;;;;;10385503;28;20193;-79
2022/06/12 21:10:22;;;;;;;5.40;5.00;;;23.80;93.40;;;;;;10401371;28;20771;-79
2022/06/12 21:15:25;;;;;;;5.27;4.77;;;23.70;94.20;;;;;;10390425;28;20198;-81
2022/06/12 21:20:28;;;;;;;6.03;5.47;;;23.50;94.60;;;;;;10387323;28;20217;-81
2022/06/12 21:25:31;;;;;;;5.50;5.10;;;23.40;94.90;;;;;;10401766;28;20261;-80
2022/06/12 21:30:37;;;;;;;9.83;8.83;;;23.30;95.10;;;;;;10396532;28;20229;-79
2022/06/12 21:35:39;;;;;;;6.90;6.27;;;23.20;95.20;;;;;;10393733;28;20233;-81
2022/06/12 21:40:42;;;;;;;5.90;5.37;;;23.10;95.20;;;;;;10383708;28;20724;-79
2022/06/12 21:45:46;;;;;;;4.50;4.10;;;23.00;95.10;;;;;;10402401;28;20229;-78
2022/06/12 21:50:48;;;;;;;4.57;4.07;;;23.00;94.60;;;;;;10397552;28;20222;-79
2022/06/12 21:55:50;;;;;;;4.17;3.80;;;23.00;95.00;;;;;;10405956;28;20210;-80
2022/06/12 22:00:53;;;;;;;4.60;4.30;;;23.00;94.30;;;;;;10389291;28;20233;-80
2022/06/12 22:05:56;;;;;;;3.40;3.20;;;23.00;94.10;;;;;;10401390;28;20622;-81
2022/06/12 22:10:58;;;;;;;3.90;3.60;;;22.90;94.00;;;;;;10403792;28;20271;-81
2022/06/12 22:16:01;;;;;;;4.40;4.00;;;22.90;94.00;;;;;;10406221;28;20209;-81
2022/06/12 22:21:03;;;;;;;4.60;4.30;;;22.90;93.70;;;;;;10407142;28;20717;-81
2022/06/12 22:26:06;;;;;;;5.00;4.50;;;22.90;94.10;;;;;;10400987;28;20203;-81
2022/06/12 22:31:10;;;;;;;4.30;3.90;;;22.80;93.90;;;;;;10390147;28;20198;-79
2022/06/12 22:36:12;;;;;;;5.93;3.50;;;22.80;93.60;;;;;;10393643;28;20291;-78
2022/06/12 22:41:14;;;;;;;4.47;4.10;;;22.80;93.30;;;;;;10395482;28;20312;-78
2022/06/12 22:46:18;;;;;;;3.60;3.40;;;22.80;93.40;;;;;;10381838;28;20232;-79
2022/06/12 22:51:20;;;;;;;3.90;3.67;;;22.80;92.70;;;;;;10389379;28;20205;-78
2022/06/12 22:56:22;;;;;;;4.10;3.70;;;22.80;92.60;;;;;;10405549;28;20225;-79
2022/06/12 23:01:27;;;;;;;3.10;2.90;;;22.80;93.10;;;;;;10405847;28;20230;-78
2022/06/12 23:06:29;;;;;;;3.63;3.33;;;22.80;92.30;;;;;;10395981;28;20240;-78
2022/06/12 23:11:31;;;;;;;3.87;3.57;;;22.80;93.10;;;;;;10395382;28;20737;-78
2022/06/12 23:16:35;;;;;;;3.50;3.20;;;22.80;93.70;;;;;;10403168;28;20345;-78
2022/06/12 23:21:37;;;;;;;5.90;5.17;;;22.80;94.10;;;;;;10402310;28;20217;-78
2022/06/12 23:26:39;;;;;;;6.70;6.30;;;22.50;96.80;;;;;;10400868;28;20219;-77
2022/06/12 23:31:44;;;;;;;9.13;8.60;;;21.90;98.40;;;;;;10398440;28;20276;-78
2022/06/12 23:36:46;;;;;;;7.33;6.93;;;21.30;99.50;;;;;;10385042;28;20226;-78
2022/06/12 23:41:48;;;;;;;8.10;7.53;;;20.80;99.90;;;;;;10399899;28;20201;-78
2022/06/12 23:46:58;;;;;;;7.20;6.60;;;20.50;99.90;;;;;;10388006;28;20223;-79
2022/06/12 23:52:00;;;;;;;6.43;5.93;;;20.30;99.90;;;;;;10382997;28;20304;-78
2022/06/12 23:57:02;;;;;;;5.77;5.33;;;20.00;99.90;;;;;;10401421;28;20230;-78
